Time;durP1;ratioP1;P1;durP2;ratioP2;P2;SDS_P1;SDS_P2;PMS_P1;PMS_P2;Temp;Humidity;BMP_temperature;BMP_pressure;BME280_temperature;BME280_humidity;BME280_pressure;Samples;Min_cycle;Max_cycle;Signal;HPM_P1;HPM_P2
2022/07/11 00:02:16;;;;;;;4.93;1.55;;;;;;;;;;5048831;28;20230;-19
2022/07/11 00:04:45;;;;;;;4.55;1.30;;;;;;;;;;5050316;28;20233;-19
2022/07/11 00:07:13;;;;;;;2.67;1.63;;;;;;;;;;5047000;28;20257;-19
2022/07/11 00:09:40;;;;;;;4.47;1.58;;;;;;;;;;5047289;28;20618;-19
2022/07/11 00:12:08;;;;;;;7.35;1.42;;;;;;;;;;5049356;28;20325;-19
2022/07/11 00:14:35;;;;;;;2.72;1.50;;;;;;;;;;5050356;28;20694;-19
2022/07/11 00:17:03;;;;;;;2.72;1.10;;;;;;;;;;5050060;28;20308;-19
2022/07/11 00:19:30;;;;;;;3.20;1.50;;;;;;;;;;5050150;28;20238;-19
2022/07/11 00:21:59;;;;;;;3.05;0.80;;;;;;;;;;5049525;28;20237;-19
2022/07/11 00:24:26;;;;;;;5.22;0.95;;;;;;;;;;5050498;28;20743;-19
2022/07/11 00:26:54;;;;;;;4.82;1.10;;;;;;;;;;5047718;28;20234;-19
2022/07/11 00:29:21;;;;;;;4.72;1.00;;;;;;;;;;5042918;28;20231;-19
2022/07/11 00:31:48;;;;;;;2.10;1.00;;;;;;;;;;5033292;28;20237;-19
2022/07/11 00:34:17;;;;;;;2.20;0.90;;;;;;;;;;5033510;28;20249;-19
2022/07/11 00:36:44;;;;;;;1.58;0.88;;;;;;;;;;5036744;28;20325;-19
2022/07/11 00:39:13;;;;;;;1.63;0.77;;;;;;;;;;5038997;28;20234;-19
2022/07/11 00:41:40;;;;;;;1.33;0.70;;;;;;;;;;5043736;28;20234;-19
2022/07/11 00:44:08;;;;;;;1.65;0.75;;;;;;;;;;5043300;28;20233;-19
2022/07/11 00:46:35;;;;;;;1.33;0.70;;;;;;;;;;5039016;28;20231;-19
2022/07/11 00:49:03;;;;;;;1.35;0.70;;;;;;;;;;5041267;28;20361;-19
2022/07/11 00:51:30;;;;;;;2.97;0.80;;;;;;;;;;5042861;28;20709;-19
2022/07/11 00:53:58;;;;;;;1.42;0.82;;;;;;;;;;5033877;28;20312;-19
2022/07/11 00:56:27;;;;;;;3.47;0.98;;;;;;;;;;5039799;28;20720;-19
2022/07/11 00:58:55;;;;;;;1.95;0.77;;;;;;;;;;5042621;28;20728;-19
2022/07/11 01:01:22;;;;;;;1.25;0.65;;;;;;;;;;5040516;28;20230;-19
2022/07/11 01:03:50;;;;;;;2.25;0.75;;;;;;;;;;5046155;28;20406;-19
2022/07/11 01:06:17;;;;;;;2.38;0.95;;;;;;;;;;5044078;28;20265;-19
2022/07/11 01:08:45;;;;;;;2.35;0.80;;;;;;;;;;5045281;28;20238;-19
2022/07/11 01:11:15;;;;;;;1.77;0.95;;;;;;;;;;5045269;28;21073;-19
2022/07/11 01:13:44;;;;;;;2.28;0.65;;;;;;;;;;5044193;28;20237;-19
2022/07/11 01:16:13;;;;;;;1.50;0.80;;;;;;;;;;5041245;28;20261;-19
2022/07/11 01:18:45;;;;;;;2.03;0.88;;;;;;;;;;5038301;28;20727;-19
2022/07/11 01:21:21;;;;;;;1.05;0.70;;;;;;;;;;5034875;28;20233;-19
2022/07/11 01:23:50;;;;;;;2.38;0.63;;;;;;;;;;5040220;28;20705;-19
2022/07/11 01:26:18;;;;;;;5.63;1.17;;;;;;;;;;5040327;28;20244;-18
2022/07/11 01:28:45;;;;;;;4.18;0.88;;;;;;;;;;5043592;28;20241;-19
2022/07/11 01:31:12;;;;;;;1.65;0.80;;;;;;;;;;5040118;28;20241;-19
2022/07/11 01:33:40;;;;;;;3.42;0.93;;;;;;;;;;5035353;28;20248;-19
2022/07/11 01:36:08;;;;;;;2.72;0.77;;;;;;;;;;5043723;28;20226;-19
2022/07/11 01:38:35;;;;;;;2.47;0.55;;;;;;;;;;5038233;28;20234;-19
2022/07/11 01:41:04;;;;;;;2.25;0.80;;;;;;;;;;5046739;28;20730;-18
2022/07/11 01:43:32;;;;;;;4.78;0.95;;;;;;;;;;5044449;28;20393;-19
2022/07/11 01:45:59;;;;;;;3.15;0.85;;;;;;;;;;5041711;28;20771;-19
2022/07/11 01:48:27;;;;;;;2.45;0.80;;;;;;;;;;5039002;28;20713;-19
2022/07/11 01:50:54;;;;;;;1.05;0.60;;;;;;;;;;5037498;28;20229;-19
2022/07/11 01:53:22;;;;;;;6.00;2.05;;;;;;;;;;5041816;28;20245;-19
2022/07/11 01:55:49;;;;;;;3.33;0.77;;;;;;;;;;5040683;28;20765;-18
2022/07/11 01:58:38;;;;;;;2.42;0.60;;;;;;;;;;5042402;28;20729;-19
2022/07/11 02:01:05;;;;;;;2.08;0.82;;;;;;;;;;5042087;28;20428;-19
2022/07/11 02:03:33;;;;;;;2.63;0.90;;;;;;;;;;5035791;28;20732;-18
2022/07/11 02:06:00;;;;;;;6.35;1.20;;;;;;;;;;5042389;28;20236;-19
2022/07/11 02:08:28;;;;;;;1.10;0.70;;;;;;;;;;5039580;28;20234;-19
2022/07/11 02:10:55;;;;;;;1.45;0.88;;;;;;;;;;5036413;28;20227;-19
2022/07/11 02:13:23;;;;;;;2.92;0.98;;;;;;;;;;5035969;28;20730;-19
2022/07/11 02:15:53;;;;;;;1.45;0.70;;;;;;;;;;5048566;28;20317;-19
2022/07/11 02:18:20;;;;;;;4.30;1.00;;;;;;;;;;5042948;28;20238;-18
2022/07/11 02:20:48;;;;;;;2.85;1.30;;;;;;;;;;5065132;22;20233;-15
2022/07/11 02:23:16;;;;;;;4.03;0.90;;;;;;;;;;5050855;28;20325;-15
2022/07/11 02:25:43;;;;;;;3.00;0.82;;;;;;;;;;5047009;28;20710;-15
2022/07/11 02:28:11;;;;;;;0.80;0.70;;;;;;;;;;5049894;28;20218;-15
2022/07/11 02:30:38;;;;;;;4.53;0.95;;;;;;;;;;5051472;28;20241;-17
2022/07/11 02:33:07;;;;;;;1.85;0.80;;;;;;;;;;5047176;28;20294;-17
2022/07/11 02:35:35;;;;;;;2.55;0.65;;;;;;;;;;5042677;28;20416;-15
2022/07/11 02:38:02;;;;;;;1.85;0.60;;;;;;;;;;5049013;28;20712;-15
2022/07/11 02:40:30;;;;;;;2.53;0.70;;;;;;;;;;5049370;28;20249;-17
2022/07/11 02:42:57;;;;;;;1.00;0.60;;;;;;;;;;5036009;28;20322;-17
2022/07/11 02:45:25;;;;;;;1.90;0.77;;;;;;;;;;5041912;28;20317;-17
2022/07/11 02:47:52;;;;;;;1.67;0.95;;;;;;;;;;5037537;28;20710;-15
2022/07/11 02:50:21;;;;;;;2.55;0.70;;;;;;;;;;5040543;28;20234;-17
2022/07/11 02:52:48;;;;;;;1.52;0.70;;;;;;;;;;5041307;28;20234;-17
2022/07/11 02:55:16;;;;;;;1.20;0.60;;;;;;;;;;5044657;28;20256;-17
2022/07/11 02:57:43;;;;;;;1.23;0.60;;;;;;;;;;5035537;28;20233;-17
2022/07/11 03:00:11;;;;;;;1.08;0.70;;;;;;;;;;5050753;28;21037;-17
2022/07/11 03:02:39;;;;;;;1.67;0.75;;;;;;;;;;5052354;28;20222;-16
2022/07/11 03:05:06;;;;;;;2.90;0.88;;;;;;;;;;5050429;28;20234;-17
2022/07/11 03:07:35;;;;;;;2.05;0.88;;;;;;;;;;5050444;28;20352;-17
2022/07/11 03:10:03;;;;;;;3.40;0.75;;;;;;;;;;5052128;28;20223;-17
2022/07/11 03:12:30;;;;;;;2.70;0.85;;;;;;;;;;5052202;28;20627;-17
2022/07/11 03:14:57;;;;;;;2.25;0.60;;;;;;;;;;5051779;28;20241;-17
2022/07/11 03:17:25;;;;;;;1.05;0.82;;;;;;;;;;5051169;28;20236;-17
2022/07/11 03:19:52;;;;;;;1.52;0.75;;;;;;;;;;5050195;28;20785;-17
2022/07/11 03:22:20;;;;;;;1.23;0.70;;;;;;;;;;5035610;28;20250;-17
2022/07/11 03:24:50;;;;;;;1.65;0.57;;;;;;;;;;5043397;28;20271;-17
2022/07/11 03:27:17;;;;;;;1.85;0.63;;;;;;;;;;5047120;28;20325;-17
2022/07/11 03:29:45;;;;;;;1.77;0.63;;;;;;;;;;5040057;28;20350;-17
2022/07/11 03:32:12;;;;;;;1.83;0.73;;;;;;;;;;5049247;28;20234;-17
2022/07/11 03:34:40;;;;;;;3.30;0.80;;;;;;;;;;5049451;28;20273;-17
2022/07/11 03:37:07;;;;;;;1.10;0.77;;;;;;;;;;5041204;28;20237;-17
2022/07/11 03:39:34;;;;;;;2.97;0.70;;;;;;;;;;5043395;28;20720;-17
2022/07/11 03:42:03;;;;;;;1.42;0.70;;;;;;;;;;5050970;28;21042;-17
2022/07/11 03:44:31;;;;;;;1.40;0.70;;;;;;;;;;5040388;28;20230;-17
2022/07/11 03:46:58;;;;;;;0.75;0.60;;;;;;;;;;5042746;28;20234;-17
2022/07/11 03:49:25;;;;;;;1.58;0.63;;;;;;;;;;5045529;28;20317;-17
2022/07/11 03:51:53;;;;;;;1.40;0.80;;;;;;;;;;5043577;28;20284;-17
2022/07/11 03:54:20;;;;;;;1.38;0.90;;;;;;;;;;5042703;28;20878;-17
2022/07/11 03:56:48;;;;;;;1.30;0.70;;;;;;;;;;5043149;28;20313;-17
2022/07/11 03:59:16;;;;;;;1.33;0.88;;;;;;;;;;5045986;28;20265;-17
2022/07/11 04:01:44;;;;;;;2.08;0.70;;;;;;;;;;5047236;28;20317;-17
2022/07/11 04:04:11;;;;;;;2.22;0.80;;;;;;;;;;5041775;28;20238;-17
2022/07/11 04:06:44;;;;;;;2.05;0.80;;;;;;;;;;5047951;28;20584;-17
2022/07/11 04:09:11;;;;;;;2.92;1.00;;;;;;;;;;5045003;28;20226;-17
2022/07/11 04:11:39;;;;;;;1.50;0.60;;;;;;;;;;5037334;28;20321;-17
2022/07/11 04:14:06;;;;;;;2.05;0.68;;;;;;;;;;5047792;28;20229;-17
2022/07/11 04:16:35;;;;;;;0.93;0.55;;;;;;;;;;5047225;28;20235;-17
2022/07/11 04:19:04;;;;;;;1.95;0.95;;;;;;;;;;5043423;28;20235;-17
2022/07/11 04:21:31;;;;;;;1.48;0.70;;;;;;;;;;5038237;28;20249;-17
2022/07/11 04:23:59;;;;;;;2.38;0.75;;;;;;;;;;5044196;28;21055;-17
2022/07/11 04:26:26;;;;;;;2.17;0.63;;;;;;;;;;5048139;28;20237;-17
2022/07/11 04:28:53;;;;;;;2.28;0.70;;;;;;;;;;5047175;28;20237;-17
2022/07/11 04:31:21;;;;;;;2.55;0.63;;;;;;;;;;5043355;28;20238;-17
2022/07/11 04:33:49;;;;;;;2.25;0.85;;;;;;;;;;5043628;28;20268;-16
2022/07/11 04:36:17;;;;;;;3.35;0.70;;;;;;;;;;5047884;28;20238;-17
2022/07/11 04:38:44;;;;;;;3.03;0.70;;;;;;;;;;5045191;28;20639;-17
2022/07/11 04:41:12;;;;;;;2.70;0.93;;;;;;;;;;5054297;28;20258;-17
2022/07/11 04:43:39;;;;;;;2.22;0.60;;;;;;;;;;5043468;28;20231;-17
2022/07/11 04:46:07;;;;;;;1.67;0.80;;;;;;;;;;5049855;28;20262;-17
2022/07/11 04:48:37;;;;;;;1.55;0.75;;;;;;;;;;5039203;28;20231;-17
2022/07/11 04:51:07;;;;;;;1.33;0.80;;;;;;;;;;5046442;28;20256;-17
2022/07/11 04:53:34;;;;;;;1.58;0.80;;;;;;;;;;5054125;28;20230;-17
2022/07/11 04:56:01;;;;;;;2.53;1.02;;;;;;;;;;5052438;28;20233;-17
2022/07/11 04:58:32;;;;;;;1.00;0.70;;;;;;;;;;5047371;28;20325;-17
2022/07/11 05:00:59;;;;;;;4.00;0.77;;;;;;;;;;5043537;28;20225;-17
2022/07/11 05:03:26;;;;;;;2.20;0.70;;;;;;;;;;5045451;28;20227;-17
2022/07/11 05:05:54;;;;;;;1.60;0.80;;;;;;;;;;5047381;28;20233;-17
2022/07/11 05:08:23;;;;;;;1.35;0.70;;;;;;;;;;5048587;28;20313;-17
2022/07/11 05:10:50;;;;;;;3.45;0.73;;;;;;;;;;5049703;28;20816;-17
2022/07/11 05:13:17;;;;;;;1.02;0.88;;;;;;;;;;5040222;28;20333;-16
2022/07/11 05:15:45;;;;;;;1.48;0.80;;;;;;;;;;5046354;28;20237;-17
2022/07/11 05:18:12;;;;;;;4.03;0.80;;;;;;;;;;5043908;28;20338;-17
2022/07/11 05:20:40;;;;;;;1.48;0.75;;;;;;;;;;5042364;28;20225;-17
2022/07/11 05:23:07;;;;;;;2.60;0.63;;;;;;;;;;5036576;28;20336;-17
2022/07/11 05:25:36;;;;;;;1.98;0.60;;;;;;;;;;5034253;28;20235;-17
2022/07/11 05:28:04;;;;;;;1.50;0.70;;;;;;;;;;5037468;28;20237;-17
2022/07/11 05:30:31;;;;;;;1.38;0.70;;;;;;;;;;5043837;28;20240;-17
2022/07/11 05:32:58;;;;;;;3.20;0.73;;;;;;;;;;5037209;28;20269;-17
2022/07/11 05:35:26;;;;;;;6.32;0.82;;;;;;;;;;5036827;28;20226;-17
2022/07/11 05:37:53;;;;;;;2.90;0.57;;;;;;;;;;5046886;28;20859;-17
2022/07/11 05:40:21;;;;;;;2.47;0.77;;;;;;;;;;5036966;28;20266;-17
2022/07/11 05:42:50;;;;;;;1.17;0.50;;;;;;;;;;5047706;28;20313;-17
2022/07/11 05:45:17;;;;;;;0.93;0.70;;;;;;;;;;5052361;28;20234;-17
2022/07/11 05:47:45;;;;;;;1.55;0.50;;;;;;;;;;5040553;28;20231;-17
2022/07/11 05:50:12;;;;;;;1.17;0.70;;;;;;;;;;5042424;28;20229;-17
2022/07/11 05:52:40;;;;;;;0.65;0.50;;;;;;;;;;5040239;28;21064;-17
2022/07/11 05:55:07;;;;;;;1.23;0.52;;;;;;;;;;5045062;28;20697;-17
2022/07/11 05:57:35;;;;;;;1.52;0.50;;;;;;;;;;5042604;28;20241;-17
2022/07/11 06:00:04;;;;;;;1.05;0.63;;;;;;;;;;5037696;28;21021;-16
2022/07/11 06:02:31;;;;;;;0.82;0.60;;;;;;;;;;5036769;28;20226;-17
2022/07/11 06:04:59;;;;;;;1.00;0.38;;;;;;;;;;5035843;28;20273;-16
2022/07/11 06:10:11;;;;;;;1.45;0.70;;;;;;;;;;5039625;28;20222;-17
2022/07/11 06:12:39;;;;;;;1.27;0.45;;;;;;;;;;5035806;28;20258;-17
2022/07/11 06:15:07;;;;;;;1.27;0.47;;;;;;;;;;5039706;28;20237;-17
2022/07/11 06:17:35;;;;;;;1.67;0.60;;;;;;;;;;5035844;28;20743;-17
2022/07/11 06:20:02;;;;;;;2.35;0.40;;;;;;;;;;5034638;28;21024;-17
2022/07/11 06:22:30;;;;;;;1.00;0.70;;;;;;;;;;5038653;28;20243;-17
2022/07/11 06:24:57;;;;;;;1.05;0.57;;;;;;;;;;5041043;28;20626;-17
2022/07/11 06:27:24;;;;;;;1.45;0.80;;;;;;;;;;5039614;28;20321;-17
2022/07/11 06:29:52;;;;;;;2.92;0.80;;;;;;;;;;5044381;28;20230;-17
2022/07/11 06:32:21;;;;;;;0.90;0.70;;;;;;;;;;5036645;28;20238;-17
2022/07/11 06:34:48;;;;;;;1.83;0.80;;;;;;;;;;5036269;28;20789;-17
2022/07/11 06:37:15;;;;;;;2.15;0.50;;;;;;;;;;5041996;28;20721;-17
2022/07/11 06:39:43;;;;;;;1.05;0.50;;;;;;;;;;5043350;28;21625;-17
2022/07/11 06:42:10;;;;;;;0.88;0.50;;;;;;;;;;5039003;28;21063;-17
2022/07/11 06:44:38;;;;;;;1.90;0.60;;;;;;;;;;5038578;28;20280;-17
2022/07/11 06:47:06;;;;;;;1.00;0.50;;;;;;;;;;5033738;28;20262;-17
2022/07/11 06:49:35;;;;;;;2.03;0.70;;;;;;;;;;5034654;28;20325;-17
2022/07/11 06:52:02;;;;;;;1.70;0.60;;;;;;;;;;5042829;28;20326;-17
2022/07/11 06:54:30;;;;;;;2.85;0.50;;;;;;;;;;5035330;28;20329;-17
2022/07/11 06:56:57;;;;;;;2.35;0.77;;;;;;;;;;5042206;28;20269;-17
2022/07/11 06:59:24;;;;;;;3.30;0.60;;;;;;;;;;5033408;28;20230;-17
2022/07/11 07:01:52;;;;;;;1.52;0.50;;;;;;;;;;5042852;28;20321;-17
2022/07/11 07:04:20;;;;;;;1.15;0.70;;;;;;;;;;5044660;28;20316;-17
2022/07/11 07:06:49;;;;;;;0.50;0.50;;;;;;;;;;5038095;28;20227;-17
2022/07/11 07:09:16;;;;;;;0.95;0.70;;;;;;;;;;5038752;28;20230;-17
2022/07/11 07:11:43;;;;;;;5.85;0.68;;;;;;;;;;5036391;28;21066;-17
2022/07/11 07:14:11;;;;;;;2.42;0.70;;;;;;;;;;5036274;28;20575;-17
2022/07/11 07:16:39;;;;;;;1.85;0.82;;;;;;;;;;5041998;28;20325;-17
2022/07/11 07:19:07;;;;;;;4.88;0.70;;;;;;;;;;5037659;28;20748;-17
2022/07/11 07:21:34;;;;;;;2.25;0.88;;;;;;;;;;5038639;28;20245;-17
2022/07/11 07:24:03;;;;;;;2.40;0.70;;;;;;;;;;5039450;28;20234;-17
2022/07/11 07:26:30;;;;;;;2.05;0.70;;;;;;;;;;5040154;28;20226;-17
2022/07/11 07:28:58;;;;;;;3.53;0.90;;;;;;;;;;5036577;28;20253;-17
2022/07/11 07:31:25;;;;;;;1.55;0.60;;;;;;;;;;5046616;28;20322;-17
2022/07/11 07:33:53;;;;;;;2.38;0.77;;;;;;;;;;5046578;28;20605;-17
2022/07/11 07:36:20;;;;;;;1.35;0.60;;;;;;;;;;5044543;28;20229;-17
2022/07/11 07:38:48;;;;;;;3.92;0.80;;;;;;;;;;5037840;28;20234;-17
2022/07/11 07:41:16;;;;;;;1.42;0.50;;;;;;;;;;5041689;28;20226;-17
2022/07/11 07:43:44;;;;;;;3.72;0.98;;;;;;;;;;5046724;28;20238;-17
2022/07/11 07:46:11;;;;;;;1.63;0.70;;;;;;;;;;5044699;28;20236;-17
2022/07/11 07:48:39;;;;;;;3.10;0.60;;;;;;;;;;5041061;28;20229;-17
2022/07/11 07:51:07;;;;;;;1.77;0.50;;;;;;;;;;5038505;28;20345;-17
2022/07/11 07:53:35;;;;;;;1.80;0.52;;;;;;;;;;5044215;28;20268;-17
2022/07/11 07:56:02;;;;;;;2.35;0.63;;;;;;;;;;5040945;28;20268;-17
2022/07/11 07:58:31;;;;;;;2.20;0.70;;;;;;;;;;5045590;28;20248;-17
2022/07/11 08:03:51;;;;;;;1.67;0.60;;;;;;;;;;5021902;28;20315;-17
2022/07/11 08:06:19;;;;;;;5.28;0.90;;;;;;;;;;5050530;28;20265;-17
2022/07/11 08:08:46;;;;;;;3.67;0.47;;;;;;;;;;5049487;28;20226;-17
2022/07/11 08:11:14;;;;;;;7.82;0.70;;;;;;;;;;5050069;28;21046;-17
2022/07/11 08:13:59;;;;;;;2.22;0.60;;;;;;;;;;5040113;28;20256;-17
2022/07/11 08:16:28;;;;;;;3.67;0.55;;;;;;;;;;5047539;28;20226;-17
2022/07/11 08:18:57;;;;;;;1.52;0.50;;;;;;;;;;5050314;28;20700;-17
2022/07/11 08:21:25;;;;;;;1.50;0.95;;;;;;;;;;5045092;28;20249;-17
2022/07/11 08:23:52;;;;;;;4.25;0.60;;;;;;;;;;5041485;28;20758;-17
2022/07/11 08:26:20;;;;;;;4.00;0.50;;;;;;;;;;5039639;28;20737;-17
2022/07/11 08:28:47;;;;;;;2.35;0.73;;;;;;;;;;5046045;28;20236;-17
2022/07/11 08:31:16;;;;;;;1.05;0.50;;;;;;;;;;5042904;28;20234;-16
2022/07/11 08:33:43;;;;;;;2.10;0.90;;;;;;;;;;5041652;28;20570;-17
2022/07/11 08:36:11;;;;;;;3.67;0.60;;;;;;;;;;5043842;28;20259;-16
2022/07/11 08:38:39;;;;;;;1.48;0.60;;;;;;;;;;5042319;28;20286;-16
2022/07/11 08:41:06;;;;;;;11.68;0.80;;;;;;;;;;5044156;28;20317;-16
2022/07/11 08:43:33;;;;;;;1.25;0.60;;;;;;;;;;5045178;28;20693;-16
2022/07/11 08:46:01;;;;;;;4.68;0.73;;;;;;;;;;5042625;28;20321;-16
2022/07/11 08:48:30;;;;;;;5.75;0.70;;;;;;;;;;5044231;28;20348;-16
2022/07/11 08:50:57;;;;;;;9.55;0.90;;;;;;;;;;5042012;28;20238;-16
2022/07/11 08:53:24;;;;;;;4.57;0.88;;;;;;;;;;5043990;28;20230;-16
2022/07/11 08:55:52;;;;;;;1.95;0.40;;;;;;;;;;5042738;28;20242;-16
2022/07/11 08:58:19;;;;;;;1.63;0.52;;;;;;;;;;5044702;28;20238;-16
2022/07/11 09:00:47;;;;;;;1.83;0.55;;;;;;;;;;5041761;28;20230;-17
2022/07/11 09:03:15;;;;;;;2.20;0.35;;;;;;;;;;5044323;28;20234;-17
2022/07/11 09:05:44;;;;;;;2.15;0.50;;;;;;;;;;5044135;28;20261;-16
2022/07/11 09:08:11;;;;;;;0.85;0.47;;;;;;;;;;5043249;28;20234;-17
2022/07/11 09:10:39;;;;;;;3.30;0.50;;;;;;;;;;5038563;28;20226;-17
2022/07/11 09:13:07;;;;;;;0.80;0.47;;;;;;;;;;5042803;28;21155;-17
2022/07/11 09:15:35;;;;;;;0.57;0.40;;;;;;;;;;5045905;28;20344;-17
2022/07/11 09:18:02;;;;;;;1.88;0.47;;;;;;;;;;5043274;28;20820;-17
2022/07/11 09:25:19;;;;;;;1.92;0.82;;;;;;;;;;5045328;28;20246;-16
2022/07/11 09:26:06;;;;;;;0.90;0.50;;;;;;;;;;5047457;28;20671;-17
2022/07/11 09:28:34;;;;;;;1.98;0.40;;;;;;;;;;5047341;28;20242;-17
2022/07/11 09:31:15;;;;;;;0.45;0.30;;;;;;;;;;5045330;28;20246;-16
2022/07/11 09:33:57;;;;;;;0.60;0.40;;;;;;;;;;5050219;28;20280;-17
2022/07/11 09:36:33;;;;;;;1.83;0.45;;;;;;;;;;5048099;28;20238;-17
2022/07/11 09:39:02;;;;;;;1.08;0.38;;;;;;;;;;5050702;28;20250;-17
2022/07/11 09:41:31;;;;;;;1.60;0.60;;;;;;;;;;5050076;28;20244;-16
2022/07/11 09:44:06;;;;;;;1.55;0.57;;;;;;;;;;5048750;28;20290;-17
2022/07/11 09:46:33;;;;;;;0.73;0.40;;;;;;;;;;5047997;28;20267;-17
2022/07/11 09:49:04;;;;;;;1.98;0.88;;;;;;;;;;5048708;28;20233;-17
2022/07/11 09:51:32;;;;;;;9.65;0.52;;;;;;;;;;5048430;28;20242;-17
2022/07/11 09:54:00;;;;;;;6.28;0.70;;;;;;;;;;5049852;28;20676;-17
2022/07/11 09:56:32;;;;;;;2.40;0.73;;;;;;;;;;5047032;28;20237;-17
2022/07/11 09:59:19;;;;;;;1.10;0.35;;;;;;;;;;5050624;28;21169;-17
2022/07/11 10:01:47;;;;;;;0.47;0.40;;;;;;;;;;5041420;28;20239;-17
2022/07/11 10:04:14;;;;;;;2.28;0.40;;;;;;;;;;5049230;28;20327;-17
2022/07/11 10:06:45;;;;;;;0.57;0.30;;;;;;;;;;5050062;28;20234;-17
2022/07/11 10:09:12;;;;;;;1.00;0.40;;;;;;;;;;5049607;28;20233;-17
2022/07/11 10:11:41;;;;;;;0.28;0.28;;;;;;;;;;5051560;28;20232;-17
2022/07/11 10:14:08;;;;;;;0.65;0.38;;;;;;;;;;5048023;28;20233;-17
2022/07/11 10:16:39;;;;;;;1.40;0.25;;;;;;;;;;5050252;28;20234;-17
2022/07/11 10:19:10;;;;;;;0.70;0.40;;;;;;;;;;5046746;28;20234;-17
2022/07/11 10:21:40;;;;;;;1.45;0.40;;;;;;;;;;5049604;28;20361;-17
2022/07/11 10:24:10;;;;;;;0.55;0.40;;;;;;;;;;5045453;28;20700;-17
2022/07/11 10:26:41;;;;;;;0.45;0.40;;;;;;;;;;5051744;28;20238;-17
2022/07/11 10:29:11;;;;;;;1.30;0.40;;;;;;;;;;5046102;28;20924;-18
2022/07/11 10:31:39;;;;;;;0.88;0.43;;;;;;;;;;5048498;28;20257;-17
2022/07/11 10:34:27;;;;;;;1.08;0.45;;;;;;;;;;5038305;28;20874;-17
2022/07/11 10:36:59;;;;;;;1.08;0.50;;;;;;;;;;5046235;28;20233;-17
2022/07/11 10:39:27;;;;;;;0.30;0.30;;;;;;;;;;5045715;28;20238;-17
2022/07/11 10:41:54;;;;;;;1.60;0.20;;;;;;;;;;5048196;28;20256;-17
2022/07/11 10:44:23;;;;;;;2.17;0.30;;;;;;;;;;5048412;28;20234;-17
2022/07/11 10:46:51;;;;;;;2.45;0.40;;;;;;;;;;5045953;28;20245;-17
2022/07/11 10:49:21;;;;;;;1.65;0.20;;;;;;;;;;5048547;28;21051;-17
2022/07/11 10:51:52;;;;;;;3.95;0.45;;;;;;;;;;5045372;28;20238;-18
2022/07/11 10:54:48;;;;;;;0.82;0.40;;;;;;;;;;5045793;28;20329;-17
2022/07/11 10:57:17;;;;;;;1.23;0.30;;;;;;;;;;5046132;28;20302;-17
2022/07/11 10:59:59;;;;;;;0.68;0.60;;;;;;;;;;5049107;28;20242;-18
2022/07/11 11:02:26;;;;;;;1.92;0.30;;;;;;;;;;5046838;28;20795;-17
2022/07/11 11:04:57;;;;;;;0.52;0.40;;;;;;;;;;5046898;28;20241;-17
2022/07/11 11:07:28;;;;;;;0.57;0.30;;;;;;;;;;5046061;28;20242;-17
2022/07/11 11:09:58;;;;;;;2.72;0.20;;;;;;;;;;5047954;28;20307;-17
2022/07/11 11:12:44;;;;;;;0.75;0.40;;;;;;;;;;5048314;28;20238;-17
2022/07/11 11:15:30;;;;;;;0.55;0.22;;;;;;;;;;5047561;28;20325;-17
2022/07/11 11:17:59;;;;;;;0.47;0.30;;;;;;;;;;5045881;28;20905;-18
2022/07/11 11:20:32;;;;;;;0.98;0.30;;;;;;;;;;5047521;28;20275;-17
2022/07/11 11:23:09;;;;;;;0.90;0.30;;;;;;;;;;5046896;28;21102;-17
2022/07/11 11:25:36;;;;;;;0.52;0.30;;;;;;;;;;5043277;28;20657;-17
2022/07/11 11:28:04;;;;;;;1.27;0.30;;;;;;;;;;5046478;28;20321;-17
2022/07/11 11:30:31;;;;;;;0.30;0.30;;;;;;;;;;5046420;28;20327;-17
2022/07/11 11:33:00;;;;;;;0.75;0.20;;;;;;;;;;5046989;28;20944;-17
2022/07/11 11:35:28;;;;;;;0.32;0.13;;;;;;;;;;5042465;28;20245;-17
2022/07/11 11:37:58;;;;;;;0.20;0.20;;;;;;;;;;5045528;28;21070;-17
2022/07/11 11:40:25;;;;;;;0.35;0.35;;;;;;;;;;5046028;28;20242;-18
2022/07/11 11:42:53;;;;;;;0.20;0.20;;;;;;;;;;5046916;28;20233;-17
2022/07/11 11:45:21;;;;;;;0.60;0.30;;;;;;;;;;5048258;28;20234;-17
2022/07/11 11:47:49;;;;;;;0.30;0.30;;;;;;;;;;5045621;28;21081;-17
2022/07/11 11:50:18;;;;;;;2.22;0.30;;;;;;;;;;5048126;28;20236;-17
2022/07/11 11:52:46;;;;;;;0.28;0.20;;;;;;;;;;5047805;28;20281;-17
2022/07/11 11:55:13;;;;;;;0.20;0.20;;;;;;;;;;5047809;28;20230;-17
2022/07/11 11:57:41;;;;;;;0.20;0.20;;;;;;;;;;5046280;28;20233;-17
2022/07/11 12:00:21;;;;;;;0.40;0.30;;;;;;;;;;5047208;28;21006;-17
2022/07/11 12:03:08;;;;;;;0.55;0.32;;;;;;;;;;5044359;28;20357;-17
2022/07/11 12:05:37;;;;;;;0.63;0.20;;;;;;;;;;5049189;28;20253;-17
2022/07/11 12:08:05;;;;;;;0.30;0.22;;;;;;;;;;5043746;28;20234;-18
2022/07/11 12:10:32;;;;;;;0.43;0.20;;;;;;;;;;5047999;28;20321;-17
2022/07/11 12:13:06;;;;;;;0.20;0.20;;;;;;;;;;5045811;28;20689;-17
2022/07/11 12:16:39;;;;;;;0.30;0.15;;;;;;;;;;5046152;28;20233;-17
2022/07/11 12:18:23;;;;;;;0.32;0.20;;;;;;;;;;5041667;28;20270;-17
2022/07/11 12:20:52;;;;;;;0.30;0.30;;;;;;;;;;5043473;28;20241;-17
2022/07/11 12:23:20;;;;;;;0.17;0.17;;;;;;;;;;5046086;28;20720;-17
2022/07/11 12:25:48;;;;;;;0.73;0.28;;;;;;;;;;5049742;28;20288;-17
2022/07/11 12:28:16;;;;;;;0.17;0.17;;;;;;;;;;5048411;28;20333;-17
2022/07/11 12:30:44;;;;;;;0.35;0.20;;;;;;;;;;5046845;28;20313;-17
2022/07/11 12:33:11;;;;;;;0.73;0.47;;;;;;;;;;5048328;28;21095;-17
2022/07/11 12:35:54;;;;;;;1.95;0.50;;;;;;;;;;5046294;28;20234;-18
2022/07/11 12:38:22;;;;;;;1.83;0.50;;;;;;;;;;5049092;28;20226;-17
2022/07/11 12:41:00;;;;;;;2.58;0.40;;;;;;;;;;5045613;28;20242;-17
2022/07/11 12:46:25;;;;;;;2.35;0.38;;;;;;;;;;5047086;28;20234;-17
2022/07/11 12:48:53;;;;;;;0.40;0.30;;;;;;;;;;5045968;28;20373;-17
2022/07/11 12:51:28;;;;;;;0.98;0.30;;;;;;;;;;5044983;28;20241;-17
2022/07/11 12:53:59;;;;;;;1.23;0.40;;;;;;;;;;5045276;28;20245;-17
2022/07/11 12:56:27;;;;;;;0.65;0.32;;;;;;;;;;5046827;28;20238;-17
2022/07/11 12:58:54;;;;;;;2.97;0.52;;;;;;;;;;5045784;28;20334;-17
2022/07/11 13:01:22;;;;;;;5.43;0.50;;;;;;;;;;5044902;28;20296;-17
2022/07/11 13:03:49;;;;;;;3.50;0.38;;;;;;;;;;5047543;28;20241;-17
2022/07/11 13:06:17;;;;;;;1.55;0.40;;;;;;;;;;5050902;28;20329;-17
2022/07/11 13:08:45;;;;;;;2.53;0.30;;;;;;;;;;5048341;28;20321;-17
2022/07/11 13:11:13;;;;;;;0.68;0.40;;;;;;;;;;5050725;28;20682;-17
2022/07/11 13:13:40;;;;;;;4.72;0.30;;;;;;;;;;5049711;28;20237;-18
2022/07/11 13:16:08;;;;;;;0.90;0.30;;;;;;;;;;5044844;28;20231;-17
2022/07/11 13:18:36;;;;;;;0.40;0.30;;;;;;;;;;5046269;28;20254;-17
2022/07/11 13:21:04;;;;;;;6.95;0.57;;;;;;;;;;5048932;28;20249;-17
2022/07/11 13:23:31;;;;;;;0.20;0.20;;;;;;;;;;5049623;28;20693;-18
2022/07/11 13:26:00;;;;;;;2.70;0.40;;;;;;;;;;5050001;28;20321;-18
2022/07/11 13:28:27;;;;;;;7.18;0.40;;;;;;;;;;5045950;28;20426;-17
2022/07/11 13:30:55;;;;;;;5.45;0.38;;;;;;;;;;5049630;28;20234;-18
2022/07/11 13:33:42;;;;;;;7.85;0.40;;;;;;;;;;5047890;28;20230;-17
2022/07/11 13:36:09;;;;;;;2.45;0.30;;;;;;;;;;5051473;28;20242;-19
2022/07/11 13:38:37;;;;;;;8.55;0.60;;;;;;;;;;5049392;28;20767;-17
2022/07/11 13:41:06;;;;;;;3.90;0.45;;;;;;;;;;5050237;28;20332;-17
2022/07/11 13:43:41;;;;;;;4.40;0.40;;;;;;;;;;5047463;28;20716;-17
2022/07/11 13:46:09;;;;;;;4.70;0.40;;;;;;;;;;5045401;28;20265;-17
2022/07/11 13:48:41;;;;;;;2.50;0.40;;;;;;;;;;5045404;28;20238;-17
2022/07/11 13:51:09;;;;;;;2.63;0.50;;;;;;;;;;5046547;28;20230;-17
2022/07/11 13:53:36;;;;;;;3.95;0.40;;;;;;;;;;5048173;28;20240;-17
2022/07/11 13:56:06;;;;;;;1.95;0.20;;;;;;;;;;5049090;28;20230;-17
2022/07/11 13:58:33;;;;;;;1.80;0.30;;;;;;;;;;5046667;28;20241;-17
2022/07/11 14:01:01;;;;;;;4.13;0.38;;;;;;;;;;5048787;28;20324;-17
2022/07/11 14:03:28;;;;;;;0.32;0.20;;;;;;;;;;5048038;28;20266;-18
2022/07/11 14:05:56;;;;;;;5.07;0.43;;;;;;;;;;5048716;28;20743;-17
2022/07/11 14:08:23;;;;;;;8.57;0.50;;;;;;;;;;5049308;28;20269;-17
2022/07/11 14:10:51;;;;;;;0.70;0.30;;;;;;;;;;5050944;28;20238;-17
2022/07/11 14:13:20;;;;;;;0.28;0.20;;;;;;;;;;5043206;28;20230;-17
2022/07/11 14:15:48;;;;;;;1.95;0.40;;;;;;;;;;5043723;28;20240;-17
2022/07/11 14:18:16;;;;;;;2.05;0.50;;;;;;;;;;5049738;28;20320;-17
2022/07/11 14:20:43;;;;;;;0.73;0.30;;;;;;;;;;5047938;28;20325;-17
2022/07/11 14:23:11;;;;;;;1.02;0.50;;;;;;;;;;5047885;28;20338;-16
2022/07/11 14:25:38;;;;;;;2.78;0.50;;;;;;;;;;5047978;28;20404;-17
2022/07/11 14:28:06;;;;;;;1.38;0.30;;;;;;;;;;5050684;28;20229;-17
2022/07/11 14:30:36;;;;;;;0.57;0.40;;;;;;;;;;5048093;28;20241;-17
2022/07/11 14:33:03;;;;;;;2.65;0.50;;;;;;;;;;5050243;28;20320;-17
2022/07/11 14:35:32;;;;;;;0.30;0.30;;;;;;;;;;5048957;28;20245;-17
2022/07/11 14:37:59;;;;;;;1.38;0.20;;;;;;;;;;5048271;28;20242;-17
2022/07/11 14:40:28;;;;;;;1.25;0.38;;;;;;;;;;5049425;28;21097;-17
2022/07/11 14:42:57;;;;;;;0.65;0.40;;;;;;;;;;5049516;28;20234;-17
2022/07/11 14:45:25;;;;;;;0.82;0.45;;;;;;;;;;5050233;28;20368;-17
2022/07/11 14:47:53;;;;;;;4.63;0.50;;;;;;;;;;5048961;28;20336;-17
2022/07/11 14:50:21;;;;;;;1.20;0.30;;;;;;;;;;5047662;28;20238;-17
2022/07/11 14:52:49;;;;;;;2.25;0.50;;;;;;;;;;5048490;28;20234;-17
2022/07/11 14:55:17;;;;;;;3.65;0.40;;;;;;;;;;5047997;28;20261;-16
2022/07/11 14:57:44;;;;;;;5.40;0.40;;;;;;;;;;5047516;28;20238;-17
2022/07/11 15:00:18;;;;;;;1.27;0.38;;;;;;;;;;5045895;28;20230;-16
2022/07/11 15:05:32;;;;;;;0.73;0.38;;;;;;;;;;5050620;28;20689;-17
2022/07/11 15:13:30;;;;;;;2.88;0.40;;;;;;;;;;5048044;28;20329;-18